createdAt,value
2018-10-09T00:00:32.155Z,78.44
2018-10-09T00:01:32.106Z,77.83
2018-10-09T00:02:32.095Z,76.09
2018-10-09T00:03:32.085Z,76.60
2018-10-09T00:04:32.092Z,76.50
2018-10-09T00:05:32.083Z,76.40
2018-10-09T00:06:32.053Z,76.60
2018-10-09T00:07:32.046Z,76.53
2018-10-09T00:08:32.037Z,76.40
2018-10-09T00:09:32.031Z,76.64
2018-10-09T00:10:32.032Z,76.74
2018-10-09T00:11:32.003Z,77.04
2018-10-09T00:12:31.992Z,76.64
2018-10-09T00:13:31.985Z,77.45
2018-10-09T00:14:31.972Z,77.39
2018-10-09T00:15:31.984Z,77.45
2018-10-09T00:16:31.964Z,78.20
2018-10-09T00:17:31.956Z,78.20
2018-10-09T00:18:31.929Z,78.11
2018-10-09T00:19:31.925Z,78.00
2018-10-09T00:20:31.906Z,78.11
2018-10-09T00:21:31.905Z,78.17
2018-10-09T00:22:31.929Z,78.58
2018-10-09T00:23:31.872Z,78.92
2018-10-09T00:24:31.874Z,78.11
2018-10-09T00:25:31.857Z,78.20
2018-10-09T00:26:31.873Z,78.00
2018-10-09T00:27:31.829Z,78.11
2018-10-09T00:28:31.833Z,77.90
2018-10-09T00:29:31.821Z,78.00
2018-10-09T00:30:31.803Z,78.31
2018-10-09T00:31:31.793Z,78.20
2018-10-09T00:32:31.788Z,78.61
2018-10-09T00:33:31.771Z,78.86
2018-10-09T00:34:31.759Z,79.88
2018-10-09T00:35:31.746Z,79.37
2018-10-09T00:36:31.736Z,80.19
2018-10-09T00:37:31.737Z,79.16
2018-10-09T00:38:31.714Z,79.06
2018-10-09T00:39:31.707Z,78.86
2018-10-09T00:40:31.716Z,78.79
2018-10-09T00:41:31.679Z,78.38
2018-10-09T00:42:31.678Z,78.69
2018-10-09T00:43:31.681Z,78.65
2018-10-09T00:44:31.645Z,78.69
2018-10-09T00:45:31.665Z,79.00
2018-10-09T00:46:31.637Z,79.41
2018-10-09T00:47:31.626Z,78.89
2018-10-09T00:48:31.622Z,78.55
2018-10-09T00:49:31.599Z,78.17
2018-10-09T00:50:31.590Z,78.24
2018-10-09T00:51:31.574Z,78.04
2018-10-09T00:52:31.564Z,78.14
2018-10-09T00:53:31.563Z,78.08
2018-10-09T00:54:31.547Z,78.14
2018-10-09T00:55:31.530Z,77.97
2018-10-09T00:56:31.519Z,78.24
2018-10-09T00:57:31.518Z,77.83
2018-10-09T00:58:31.500Z,77.53
2018-10-09T00:59:31.501Z,77.42
2018-10-09T01:00:31.480Z,77.22
2018-10-09T01:01:31.471Z,76.61
2018-10-09T01:02:31.452Z,76.61
2018-10-09T01:03:31.450Z,76.50
2018-10-09T01:04:31.434Z,76.71
2018-10-09T01:05:31.428Z,76.81
2018-10-09T01:06:31.409Z,75.79
2018-10-09T01:07:31.400Z,76.50
2018-10-09T01:08:31.423Z,75.79
2018-10-09T01:09:31.394Z,76.06
2018-10-09T01:10:31.407Z,76.09
2018-10-09T01:11:31.358Z,76.26
2018-10-09T01:12:31.350Z,76.30
2018-10-09T01:13:31.340Z,75.89
2018-10-09T01:14:31.334Z,75.89
2018-10-09T01:15:31.329Z,76.20
2018-10-09T01:16:31.307Z,75.79
2018-10-09T01:17:31.291Z,75.89
2018-10-09T01:18:31.282Z,76.75
2018-10-09T01:19:31.273Z,76.91
2018-10-09T01:20:31.276Z,76.50
2018-10-09T01:21:31.297Z,76.54
2018-10-09T01:22:31.238Z,76.64
2018-10-09T01:23:31.240Z,76.50
2018-10-09T01:24:31.218Z,76.64
2018-10-09T01:25:31.205Z,76.75
2018-10-09T01:26:31.196Z,77.01
2018-10-09T01:27:31.205Z,76.40
2018-10-09T01:28:31.180Z,76.30
2018-10-09T01:29:31.180Z,76.13
2018-10-09T01:30:31.152Z,75.79
2018-10-09T01:31:31.150Z,76.43
2018-10-09T01:32:31.163Z,76.23
2018-10-09T01:33:31.123Z,76.03
2018-10-09T01:34:31.112Z,76.23
2018-10-09T01:35:31.100Z,76.95
2018-10-09T01:36:31.094Z,76.03
2018-10-09T01:37:31.088Z,76.03
2018-10-09T01:38:31.079Z,76.43
2018-10-09T01:39:31.056Z,76.27
2018-10-09T01:40:31.047Z,75.76
2018-10-09T01:41:31.045Z,75.62
2018-10-09T01:42:31.022Z,75.65
2018-10-09T01:43:31.043Z,76.95
2018-10-09T01:44:31.006Z,76.03
2018-10-09T01:45:30.991Z,75.82
2018-10-09T01:46:30.983Z,76.84
2018-10-09T01:47:30.976Z,75.65
2018-10-09T01:48:30.980Z,76.54
2018-10-09T01:49:30.954Z,75.62
2018-10-09T01:50:30.950Z,76.95
2018-10-09T01:51:30.928Z,76.23
2018-10-09T01:52:30.933Z,76.23
2018-10-09T01:53:30.906Z,76.75
2018-10-09T01:54:30.906Z,76.64
2018-10-09T01:55:30.914Z,76.13
2018-10-09T01:56:30.885Z,75.72
2018-10-09T01:57:30.863Z,76.84
2018-10-09T01:58:30.864Z,76.64
2018-10-09T01:59:30.858Z,77.05
2018-10-09T02:00:30.839Z,77.36
2018-10-09T02:01:30.820Z,77.42
2018-10-09T02:02:30.815Z,77.36
2018-10-09T02:03:30.801Z,77.42
2018-10-09T02:04:30.804Z,77.32
2018-10-09T02:05:30.785Z,76.91
2018-10-09T02:06:30.778Z,76.47
2018-10-09T02:07:30.762Z,76.57
2018-10-09T02:08:30.752Z,76.98
2018-10-09T02:09:30.733Z,76.64
2018-10-09T02:10:30.734Z,76.06
2018-10-09T02:11:30.712Z,75.55
2018-10-09T02:12:30.837Z,75.65
2018-10-09T02:13:30.696Z,75.75
2018-10-09T02:14:30.702Z,76.06
2018-10-09T02:15:30.676Z,75.65
2018-10-09T02:16:30.662Z,75.55
2018-10-09T02:17:30.656Z,75.75
2018-10-09T02:18:30.662Z,76.09
2018-10-09T02:19:30.634Z,75.79
2018-10-09T02:20:30.633Z,75.68
2018-10-09T02:21:30.608Z,76.30
2018-10-09T02:22:30.605Z,76.81
2018-10-09T02:23:30.583Z,76.50
2018-10-09T02:24:30.577Z,76.81
2018-10-09T02:25:30.572Z,76.30
2018-10-09T02:26:30.582Z,76.40
2018-10-09T02:27:30.549Z,76.30
2018-10-09T02:28:30.552Z,76.54
2018-10-09T02:29:30.542Z,76.64
2018-10-09T02:30:30.517Z,76.95
2018-10-09T02:31:30.514Z,77.36
2018-10-09T02:32:30.498Z,76.54
2018-10-09T02:33:30.500Z,77.05
2018-10-09T02:34:30.488Z,77.26
2018-10-09T02:35:30.458Z,77.36
2018-10-09T02:36:30.464Z,77.36
2018-10-09T02:37:30.440Z,76.84
2018-10-09T02:38:30.425Z,76.75
2018-10-09T02:39:30.421Z,77.26
2018-10-09T02:40:30.420Z,77.05
2018-10-09T02:41:30.400Z,76.75
2018-10-09T02:42:30.407Z,76.75
2018-10-09T02:43:30.386Z,76.75
2018-10-09T02:44:30.364Z,76.84
2018-10-09T02:45:30.352Z,76.75
2018-10-09T02:46:30.339Z,76.88
2018-10-09T02:47:30.345Z,77.09
2018-10-09T02:48:30.321Z,76.57
2018-10-09T02:49:30.307Z,76.68
2018-10-09T02:50:30.299Z,76.78
2018-10-09T02:51:30.293Z,76.78
2018-10-09T02:52:30.295Z,76.98
2018-10-09T02:53:30.262Z,76.37
2018-10-09T02:54:30.266Z,76.57
2018-10-09T02:55:30.244Z,76.47
2018-10-09T02:56:30.284Z,76.17
2018-10-09T02:57:30.222Z,76.47
2018-10-09T02:58:30.243Z,76.27
2018-10-09T02:59:30.199Z,76.72
2018-10-09T03:00:30.196Z,76.81
2018-10-09T03:01:30.182Z,76.81
2018-10-09T03:02:30.172Z,76.37
2018-10-09T03:03:30.176Z,76.78
2018-10-09T03:04:30.203Z,76.78
2018-10-09T03:05:30.137Z,76.57
2018-10-09T03:06:30.131Z,76.98
2018-10-09T03:07:30.119Z,77.43
2018-10-09T03:08:30.136Z,77.91
2018-10-09T03:09:30.096Z,78.25
2018-10-09T03:10:30.083Z,78.21
2018-10-09T03:11:30.088Z,77.60
2018-10-09T03:12:30.063Z,77.70
2018-10-09T03:13:30.077Z,77.39
2018-10-09T03:14:30.053Z,77.29
2018-10-09T03:15:30.033Z,76.88
2018-10-09T03:16:30.020Z,76.88
2018-10-09T03:17:30.006Z,77.23
2018-10-09T03:18:29.997Z,77.64
2018-10-09T03:19:30.015Z,77.33
2018-10-09T03:20:30.042Z,77.73
2018-10-09T03:21:29.969Z,78.35
2018-10-09T03:22:29.956Z,77.19
2018-10-09T03:23:29.946Z,77.23
2018-10-09T03:24:29.936Z,78.11
2018-10-09T03:25:29.932Z,78.25
2018-10-09T03:26:29.917Z,78.21
2018-10-09T03:27:29.903Z,78.35
2018-10-09T03:28:29.891Z,78.45
2018-10-09T03:29:29.883Z,78.76
2018-10-09T03:30:29.881Z,78.86
2018-10-09T03:31:29.870Z,79.07
2018-10-09T03:32:29.853Z,78.97
2018-10-09T03:33:29.853Z,78.97
2018-10-09T03:34:29.831Z,79.27
2018-10-09T03:35:29.830Z,78.97
2018-10-09T03:36:29.829Z,79.38
2018-10-09T03:37:29.806Z,80.30
2018-10-09T03:38:29.782Z,80.33
2018-10-09T03:39:29.803Z,80.23
2018-10-09T03:40:29.770Z,80.44
2018-10-09T03:41:29.787Z,81.09
2018-10-09T03:42:29.751Z,81.20
2018-10-09T03:43:29.767Z,81.29
2018-10-09T03:44:29.725Z,80.78
2018-10-09T03:45:29.708Z,81.29
2018-10-09T03:46:29.714Z,80.64
2018-10-09T03:47:29.686Z,80.85
2018-10-09T03:48:29.679Z,80.85
2018-10-09T03:49:29.665Z,81.15
2018-10-09T03:50:29.656Z,80.74
2018-10-09T03:51:29.662Z,80.60
2018-10-09T03:52:29.650Z,80.54
2018-10-09T03:53:29.622Z,80.13
2018-10-09T03:54:29.653Z,80.03
2018-10-09T03:55:29.615Z,80.03
2018-10-09T03:56:29.596Z,80.33
2018-10-09T03:57:29.620Z,79.52
2018-10-09T03:58:29.570Z,79.38
2018-10-09T03:59:29.559Z,80.33
2018-10-09T04:00:29.553Z,79.93
2018-10-09T04:01:29.560Z,80.23
2018-10-09T04:02:29.527Z,80.13
2018-10-09T04:03:29.534Z,80.54
2018-10-09T04:04:29.512Z,80.54
2018-10-09T04:05:29.498Z,80.64
2018-10-09T04:06:29.504Z,79.66
2018-10-09T04:07:29.476Z,79.21
2018-10-09T04:08:29.483Z,79.82
2018-10-09T04:09:29.521Z,80.03
2018-10-09T04:10:29.444Z,80.33
2018-10-09T04:11:29.439Z,79.31
2018-10-09T04:12:29.437Z,79.41
2018-10-09T04:13:29.411Z,79.11
2018-10-09T04:14:29.435Z,79.14
2018-10-09T04:15:29.398Z,78.59
2018-10-09T04:16:29.386Z,78.63
2018-10-09T04:17:29.373Z,79.04
2018-10-09T04:18:29.369Z,78.90
2018-10-09T04:19:29.454Z,78.90
2018-10-09T04:20:29.343Z,79.14
2018-10-09T04:21:29.324Z,78.63
2018-10-09T04:22:29.318Z,78.94
2018-10-09T04:23:29.305Z,79.14
2018-10-09T04:24:29.309Z,78.63
2018-10-09T04:25:29.287Z,79.14
2018-10-09T04:26:29.280Z,79.04
2018-10-09T04:27:29.264Z,78.74
2018-10-09T04:28:29.255Z,78.83
2018-10-09T04:29:29.398Z,78.83
2018-10-09T04:30:29.279Z,78.83
2018-10-09T04:31:29.241Z,78.94
2018-10-09T04:32:29.214Z,78.83
2018-10-09T04:33:29.200Z,79.04
2018-10-09T04:34:29.191Z,78.74
2018-10-09T04:35:29.213Z,78.77
2018-10-09T04:36:29.170Z,78.53
2018-10-09T04:37:29.161Z,79.18
2018-10-09T04:38:29.156Z,79.24
2018-10-09T04:39:29.145Z,78.94
2018-10-09T04:40:29.130Z,78.74
2018-10-09T04:41:29.134Z,79.24
2018-10-09T04:42:29.109Z,79.04
2018-10-09T04:43:29.093Z,78.74
2018-10-09T04:44:29.092Z,78.83
2018-10-09T04:45:29.136Z,79.04
2018-10-09T04:46:29.069Z,79.04
2018-10-09T04:47:29.523Z,78.63
2018-10-09T04:48:29.039Z,78.28
2018-10-09T04:49:29.031Z,78.94
2018-10-09T04:50:29.024Z,78.80
2018-10-09T04:51:29.007Z,78.49
2018-10-09T04:52:29.012Z,79.11
2018-10-09T04:53:29.005Z,78.90
2018-10-09T04:54:28.975Z,78.70
2018-10-09T04:55:28.963Z,78.90
2018-10-09T04:56:28.956Z,79.00
2018-10-09T04:57:28.946Z,79.21
2018-10-09T04:58:28.945Z,79.11
2018-10-09T04:59:28.922Z,78.70
2018-10-09T05:00:28.922Z,78.90
2018-10-09T05:01:28.909Z,78.86
2018-10-09T05:02:28.906Z,78.86
2018-10-09T05:03:28.900Z,78.97
2018-10-09T05:04:28.875Z,78.66
2018-10-09T05:05:28.863Z,79.07
2018-10-09T05:06:28.848Z,78.21
2018-10-09T05:07:28.837Z,78.21
2018-10-09T05:08:28.829Z,77.50
2018-10-09T05:09:28.825Z,77.64
2018-10-09T05:10:28.805Z,78.01
2018-10-09T05:11:28.795Z,78.01
2018-10-09T05:12:28.789Z,78.15
2018-10-09T05:13:28.779Z,77.70
2018-10-09T05:14:28.780Z,78.11
2018-10-09T05:15:28.767Z,78.11
2018-10-09T05:16:28.743Z,78.31
2018-10-09T05:17:28.738Z,78.28
2018-10-09T05:18:28.720Z,78.17
2018-10-09T05:19:28.728Z,77.26
2018-10-09T05:20:28.713Z,77.05
2018-10-09T05:21:28.696Z,76.84
2018-10-09T05:22:28.680Z,76.54
2018-10-09T05:23:28.669Z,76.75
2018-10-09T05:24:28.660Z,77.67
2018-10-09T05:25:28.665Z,78.17
2018-10-09T05:26:28.648Z,78.17
2018-10-09T05:27:28.649Z,79.00
2018-10-09T05:28:28.617Z,78.93
2018-10-09T05:29:28.604Z,78.93
2018-10-09T05:30:28.622Z,79.24
2018-10-09T05:31:28.623Z,78.93
2018-10-09T05:32:28.572Z,79.30
2018-10-09T05:33:28.608Z,79.41
2018-10-09T05:34:28.557Z,78.79
2018-10-09T05:35:28.542Z,79.20
2018-10-09T05:36:28.544Z,78.65
2018-10-09T05:37:28.545Z,78.96
2018-10-09T05:38:28.516Z,78.86
2018-10-09T05:39:28.520Z,78.96
2018-10-09T05:40:28.487Z,78.86
2018-10-09T05:41:28.509Z,78.65
2018-10-09T05:42:28.473Z,78.96
2018-10-09T05:43:28.463Z,78.75
2018-10-09T05:44:28.448Z,78.75
2018-10-09T05:45:28.451Z,78.75
2018-10-09T05:46:28.428Z,78.45
2018-10-09T05:47:28.422Z,78.96
2018-10-09T05:48:28.411Z,78.72
2018-10-09T05:49:28.393Z,77.94
2018-10-09T05:50:28.393Z,78.11
2018-10-09T05:51:28.386Z,78.11
2018-10-09T05:52:28.380Z,78.04
2018-10-09T05:53:28.347Z,78.11
2018-10-09T05:54:28.338Z,78.14
2018-10-09T05:55:28.335Z,78.96
2018-10-09T05:56:28.316Z,79.47
2018-10-09T05:57:28.305Z,79.98
2018-10-09T05:58:28.298Z,80.15
2018-10-09T05:59:28.284Z,80.05
2018-10-09T06:00:28.287Z,79.94
2018-10-09T06:01:28.271Z,79.64
2018-10-09T06:02:28.258Z,79.23
2018-10-09T06:03:28.260Z,78.88
2018-10-09T06:04:28.261Z,78.78
2018-10-09T06:05:28.227Z,79.09
2018-10-09T06:06:28.215Z,79.29
2018-10-09T06:07:28.210Z,78.88
2018-10-09T06:08:28.190Z,79.39
2018-10-09T06:09:28.188Z,80.11
2018-10-09T06:10:28.176Z,80.32
2018-10-09T06:11:28.168Z,79.80
2018-10-09T06:12:28.162Z,79.70
2018-10-09T06:13:28.160Z,80.73
2018-10-09T06:14:28.169Z,80.62
2018-10-09T06:15:28.136Z,80.52
2018-10-09T06:16:28.117Z,80.62
2018-10-09T06:17:28.098Z,81.24
2018-10-09T06:18:28.087Z,81.03
2018-10-09T06:19:28.070Z,81.34
2018-10-09T06:20:28.082Z,81.34
2018-10-09T06:21:28.052Z,80.83
2018-10-09T06:22:28.047Z,80.83
2018-10-09T06:23:28.039Z,80.93
2018-10-09T06:24:28.047Z,81.20
2018-10-09T06:25:28.014Z,80.79
2018-10-09T06:26:27.996Z,81.10
2018-10-09T06:27:27.985Z,81.30
2018-10-09T06:28:28.059Z,81.51
2018-10-09T06:29:27.987Z,81.30
2018-10-09T06:30:27.959Z,80.79
2018-10-09T06:31:27.943Z,81.20
2018-10-09T06:32:27.953Z,81.30
2018-10-09T06:33:27.942Z,80.99
2018-10-09T06:34:27.935Z,81.30
2018-10-09T06:35:27.914Z,81.26
2018-10-09T06:36:27.907Z,81.40
2018-10-09T06:37:27.919Z,80.96
2018-10-09T06:38:27.885Z,81.16
2018-10-09T06:39:27.864Z,81.16
2018-10-09T06:40:27.897Z,81.37
2018-10-09T06:41:27.840Z,80.99
2018-10-09T06:42:27.849Z,81.51
2018-10-09T06:43:27.828Z,81.16
2018-10-09T06:44:27.816Z,81.26
2018-10-09T06:45:27.813Z,80.96
2018-10-09T06:46:27.786Z,81.05
2018-10-09T06:47:27.803Z,81.26
2018-10-09T06:48:27.760Z,81.12
2018-10-09T06:49:27.755Z,80.82
2018-10-09T06:50:27.744Z,81.05
2018-10-09T06:51:27.762Z,81.23
2018-10-09T06:52:27.717Z,81.05
2018-10-09T06:53:27.810Z,80.91
2018-10-09T06:54:27.826Z,81.23
2018-10-09T06:55:27.688Z,82.14
2018-10-09T06:56:27.677Z,81.73
2018-10-09T06:57:27.686Z,82.35
2018-10-09T06:58:27.665Z,82.75
2018-10-09T06:59:27.661Z,82.65
2018-10-09T07:00:27.658Z,82.65
2018-10-09T07:01:27.640Z,82.41
2018-10-09T07:02:27.624Z,82.31
2018-10-09T07:03:27.607Z,82.31
2018-10-09T07:04:27.601Z,82.92
2018-10-09T07:05:27.627Z,82.27
2018-10-09T07:06:27.587Z,83.18
2018-10-09T07:07:27.556Z,82.54
2018-10-09T07:08:27.589Z,81.04
2018-10-09T07:09:27.697Z,81.11
2018-10-09T07:10:27.542Z,80.80
2018-10-09T07:11:27.568Z,81.25
2018-10-09T07:12:28.004Z,80.80
2018-10-09T07:13:27.505Z,80.91
2018-10-09T07:14:27.518Z,81.62
2018-10-09T07:15:27.488Z,80.60
2018-10-09T07:16:27.461Z,81.21
2018-10-09T07:17:27.451Z,81.11
2018-10-09T07:18:27.436Z,81.11
2018-10-09T07:19:27.436Z,81.41
2018-10-09T07:20:27.423Z,81.07
2018-10-09T07:21:27.429Z,80.87
2018-10-09T07:22:27.395Z,81.07
2018-10-09T07:23:27.404Z,80.77
2018-10-09T07:24:27.388Z,80.97
2018-10-09T07:25:27.363Z,81.95
2018-10-09T07:26:27.364Z,81.54
2018-10-09T07:27:27.342Z,81.44
2018-10-09T07:28:27.334Z,81.44
2018-10-09T07:29:27.331Z,81.34
2018-10-09T07:30:27.353Z,81.81
2018-10-09T07:31:27.305Z,81.85
2018-10-09T07:32:27.294Z,82.42
2018-10-09T07:33:27.299Z,82.42
2018-10-09T07:34:27.265Z,82.01
2018-10-09T07:35:27.280Z,82.73
2018-10-09T07:36:27.249Z,82.73
2018-10-09T07:37:27.259Z,83.54
2018-10-09T07:38:27.229Z,83.44
2018-10-09T07:39:27.212Z,83.60
2018-10-09T07:40:27.206Z,84.21
2018-10-09T07:41:27.197Z,84.31
2018-10-09T07:42:27.180Z,84.31
2018-10-09T07:43:27.173Z,84.01
2018-10-09T07:44:27.165Z,84.01
2018-10-09T07:45:27.164Z,84.21
2018-10-09T07:46:27.156Z,83.56
2018-10-09T07:47:27.128Z,83.56
2018-10-09T07:48:27.126Z,83.76
2018-10-09T07:49:27.108Z,83.46
2018-10-09T07:50:27.096Z,84.28
2018-10-09T07:51:27.082Z,83.56
2018-10-09T07:52:27.085Z,83.26
2018-10-09T07:53:27.068Z,83.42
2018-10-09T07:54:27.059Z,82.92
2018-10-09T07:55:27.042Z,82.92
2018-10-09T07:56:27.032Z,83.01
2018-10-09T07:57:27.041Z,82.71
2018-10-09T07:58:27.029Z,82.87
2018-10-09T07:59:26.999Z,82.47
2018-10-09T08:00:26.993Z,82.26
2018-10-09T08:01:26.999Z,82.37
2018-10-09T08:02:26.964Z,81.35
2018-10-09T08:03:26.963Z,81.45
2018-10-09T08:04:26.946Z,81.45
2018-10-09T08:05:26.941Z,80.71
2018-10-09T08:06:26.928Z,81.52
2018-10-09T08:07:26.915Z,81.01
2018-10-09T08:08:26.931Z,81.41
2018-10-09T08:09:26.894Z,81.21
2018-10-09T08:10:26.947Z,81.31
2018-10-09T08:11:26.882Z,81.52
2018-10-09T08:12:26.862Z,80.91
2018-10-09T08:13:26.870Z,80.77
2018-10-09T08:14:26.853Z,80.46
2018-10-09T08:15:26.828Z,80.06
2018-10-09T08:16:26.908Z,80.22
2018-10-09T08:17:26.812Z,79.92
2018-10-09T08:18:26.800Z,80.02
2018-10-09T08:19:26.837Z,79.82
2018-10-09T08:20:26.779Z,79.98
2018-10-09T08:21:26.771Z,79.27
2018-10-09T08:22:26.836Z,78.56
2018-10-09T08:23:26.748Z,78.53
2018-10-09T08:24:26.740Z,78.33
2018-10-09T08:25:26.725Z,78.22
2018-10-09T08:26:26.712Z,78.12
2018-10-09T08:27:26.705Z,79.24
2018-10-09T08:28:26.712Z,79.44
2018-10-09T08:29:26.685Z,78.83
2018-10-09T08:30:26.688Z,78.93
2018-10-09T08:31:26.669Z,79.44
2018-10-09T08:32:26.650Z,79.13
2018-10-09T08:33:26.654Z,79.24
2018-10-09T08:34:26.637Z,79.24
2018-10-09T08:35:26.641Z,78.73
2018-10-09T08:36:26.629Z,79.13
2018-10-09T08:37:26.614Z,79.34
2018-10-09T08:38:26.580Z,79.74
2018-10-09T08:39:26.581Z,79.44
2018-10-09T08:40:26.679Z,79.24
2018-10-09T08:41:26.699Z,79.03
2018-10-09T08:42:26.603Z,79.34
2018-10-09T08:43:26.528Z,78.63
2018-10-09T08:44:26.528Z,79.17
2018-10-09T08:45:26.515Z,79.13
2018-10-09T08:46:26.591Z,79.44
2018-10-09T08:47:26.491Z,79.54
2018-10-09T08:48:26.481Z,79.03
2018-10-09T08:49:26.472Z,79.13
2018-10-09T08:50:26.465Z,79.24
2018-10-09T08:51:27.014Z,79.24
2018-10-09T08:52:26.455Z,78.33
2018-10-09T08:53:26.445Z,79.34
2018-10-09T08:54:26.409Z,78.53
2018-10-09T08:55:26.399Z,78.42
2018-10-09T08:56:26.393Z,78.79
2018-10-09T08:57:26.442Z,78.59
2018-10-09T08:58:26.389Z,78.63
2018-10-09T08:59:26.357Z,79.30
2018-10-09T09:00:26.352Z,79.74
2018-10-09T09:01:26.340Z,79.13
2018-10-09T09:02:26.332Z,79.24
2018-10-09T09:03:26.322Z,79.40
2018-10-09T09:04:26.320Z,78.49
2018-10-09T09:05:26.302Z,78.08
2018-10-09T09:06:26.283Z,78.63
2018-10-09T09:07:26.274Z,78.69
2018-10-09T09:08:26.267Z,79.00
2018-10-09T09:09:26.301Z,78.28
2018-10-09T09:10:26.251Z,78.28
2018-10-09T09:11:26.236Z,78.39
2018-10-09T09:12:26.223Z,78.49
2018-10-09T09:13:26.215Z,78.59
2018-10-09T09:14:26.231Z,78.25
2018-10-09T09:15:26.229Z,78.05
2018-10-09T09:16:26.177Z,77.95
2018-10-09T09:17:26.173Z,77.91
2018-10-09T09:18:26.153Z,77.71
2018-10-09T09:19:26.185Z,77.91
2018-10-09T09:20:26.228Z,77.47
2018-10-09T09:21:26.124Z,77.26
2018-10-09T09:22:26.112Z,77.57
2018-10-09T09:23:26.102Z,77.17
2018-10-09T09:24:26.093Z,77.17
2018-10-09T09:25:26.104Z,77.26
2018-10-09T09:26:26.130Z,77.06
2018-10-09T09:27:26.075Z,76.46
2018-10-09T09:28:26.068Z,76.15
2018-10-09T09:29:26.042Z,76.56
2018-10-09T09:30:26.040Z,76.35
2018-10-09T09:31:26.019Z,76.35
2018-10-09T09:32:26.011Z,76.46
2018-10-09T09:33:26.004Z,77.23
2018-10-09T09:34:26.027Z,77.33
2018-10-09T09:35:25.972Z,76.42
2018-10-09T09:36:25.962Z,75.92
2018-10-09T09:37:25.959Z,75.51
2018-10-09T09:38:25.945Z,75.51
2018-10-09T09:39:25.957Z,75.71
2018-10-09T09:40:25.923Z,75.61
2018-10-09T09:41:25.912Z,75.81
2018-10-09T09:42:25.899Z,75.71
2018-10-09T09:43:25.891Z,75.71
2018-10-09T09:44:25.883Z,75.81
2018-10-09T09:45:25.900Z,75.81
2018-10-09T09:46:25.857Z,75.78
2018-10-09T09:47:25.860Z,75.61
2018-10-09T09:48:25.842Z,75.78
2018-10-09T09:49:25.876Z,75.61
2018-10-09T09:50:25.816Z,75.71
2018-10-09T09:51:25.832Z,75.78
2018-10-09T09:52:25.799Z,75.78
2018-10-09T09:53:25.801Z,75.81
2018-10-09T09:54:25.772Z,75.71
2018-10-09T09:55:25.763Z,75.71
2018-10-09T09:56:25.749Z,75.81
2018-10-09T09:57:25.781Z,75.61
2018-10-09T09:58:25.942Z,75.61
2018-10-09T09:59:25.829Z,75.51
2018-10-09T10:00:25.736Z,75.92
2018-10-09T10:01:25.701Z,76.42
2018-10-09T10:02:25.735Z,76.42
2018-10-09T10:03:25.691Z,76.32
2018-10-09T10:04:25.671Z,75.41
2018-10-09T10:05:25.697Z,75.61
2018-10-09T10:06:25.641Z,75.92
2018-10-09T10:07:25.637Z,76.42
2018-10-09T10:08:25.691Z,76.42
2018-10-09T10:09:25.699Z,76.02
2018-10-09T10:10:25.598Z,75.92
2018-10-09T10:11:25.590Z,75.78
2018-10-09T10:12:25.585Z,75.71
2018-10-09T10:13:25.566Z,75.92
2018-10-09T10:14:25.597Z,76.02
2018-10-09T10:15:25.559Z,76.52
2018-10-09T10:16:25.552Z,76.12
2018-10-09T10:17:25.524Z,76.42
2018-10-09T10:18:25.526Z,77.53
2018-10-09T10:19:25.505Z,76.62
2018-10-09T10:20:26.013Z,77.03
2018-10-09T10:21:25.595Z,76.42
2018-10-09T10:22:25.472Z,76.12
2018-10-09T10:23:25.457Z,75.78
2018-10-09T10:24:25.469Z,75.98
2018-10-09T10:25:25.439Z,75.41
2018-10-09T10:26:25.447Z,75.92
2018-10-09T10:27:25.428Z,75.92
2018-10-09T10:28:25.404Z,76.02
2018-10-09T10:29:25.406Z,75.71
2018-10-09T10:30:25.382Z,75.31
2018-10-09T10:31:25.375Z,75.71
2018-10-09T10:32:25.378Z,76.02
2018-10-09T10:33:25.361Z,75.81
2018-10-09T10:34:25.345Z,75.71
2018-10-09T10:35:25.357Z,75.71
2018-10-09T10:36:25.319Z,75.88
2018-10-09T10:37:25.326Z,76.08
2018-10-09T10:38:25.310Z,75.78
2018-10-09T10:39:25.294Z,74.87
2018-10-09T10:40:25.273Z,74.66
2018-10-09T10:41:25.266Z,75.07
2018-10-09T10:42:25.255Z,75.27
2018-10-09T10:43:25.246Z,74.80
2018-10-09T10:44:25.250Z,74.66
2018-10-09T10:45:25.220Z,75.27
2018-10-09T10:46:25.211Z,74.70
2018-10-09T10:47:25.205Z,74.97
2018-10-09T10:48:25.195Z,74.77
2018-10-09T10:49:25.180Z,74.77
2018-10-09T10:50:25.172Z,74.87
2018-10-09T10:51:25.158Z,74.37
2018-10-09T10:52:25.151Z,73.96
2018-10-09T10:53:25.157Z,74.06
2018-10-09T10:54:25.127Z,74.33
2018-10-09T10:55:25.118Z,73.93
2018-10-09T10:56:25.109Z,73.93
2018-10-09T10:57:25.098Z,72.91
2018-10-09T10:58:25.098Z,72.21
2018-10-09T10:59:25.077Z,72.21
2018-10-09T11:00:25.061Z,72.71
2018-10-09T11:01:25.176Z,72.61
2018-10-09T11:02:25.040Z,72.41
2018-10-09T11:03:25.026Z,71.91
2018-10-09T11:04:25.035Z,72.51
2018-10-09T11:05:25.020Z,72.68
2018-10-09T11:06:24.997Z,72.31
2018-10-09T11:07:24.989Z,71.30
2018-10-09T11:08:25.032Z,71.50
2018-10-09T11:09:24.977Z,71.40
2018-10-09T11:10:24.976Z,71.10
2018-10-09T11:11:24.941Z,71.50
2018-10-09T11:12:24.979Z,71.10
2018-10-09T11:13:24.922Z,71.40
2018-10-09T11:14:24.907Z,71.40
2018-10-09T11:15:24.910Z,71.40
2018-10-09T11:16:24.887Z,71.97
2018-10-09T11:17:24.884Z,72.61
2018-10-09T11:18:24.871Z,71.37
2018-10-09T11:19:24.867Z,71.70
2018-10-09T11:20:24.909Z,71.70
2018-10-09T11:21:25.020Z,71.80
2018-10-09T11:22:24.825Z,72.11
2018-10-09T11:23:24.813Z,72.04
2018-10-09T11:24:24.805Z,72.14
2018-10-09T11:25:24.794Z,72.75
2018-10-09T11:26:24.783Z,73.15
2018-10-09T11:27:24.774Z,73.15
2018-10-09T11:28:24.757Z,72.44
2018-10-09T11:29:24.750Z,72.95
2018-10-09T11:30:24.740Z,72.11
2018-10-09T11:31:24.735Z,71.70
2018-10-09T11:32:24.751Z,71.80
2018-10-09T11:33:24.704Z,71.80
2018-10-09T11:34:24.704Z,71.50
2018-10-09T11:35:24.687Z,71.60
2018-10-09T11:36:24.699Z,72.21
2018-10-09T11:37:24.685Z,73.02
2018-10-09T11:38:24.651Z,72.41
2018-10-09T11:39:24.657Z,72.41
2018-10-09T11:40:24.638Z,71.97
2018-10-09T11:41:24.618Z,71.67
2018-10-09T11:42:24.646Z,71.87
2018-10-09T11:43:24.598Z,71.67
2018-10-09T11:44:24.590Z,71.17
2018-10-09T11:45:24.576Z,71.77
2018-10-09T11:46:24.568Z,73.02
2018-10-09T11:47:24.566Z,72.38
2018-10-09T11:48:24.544Z,72.68
2018-10-09T11:49:24.558Z,72.48
2018-10-09T11:50:24.525Z,72.58
2018-10-09T11:51:24.523Z,72.07
2018-10-09T11:52:24.503Z,72.31
2018-10-09T11:53:24.489Z,73.28
2018-10-09T11:54:24.487Z,72.58
2018-10-09T11:55:24.478Z,72.27
2018-10-09T11:56:24.477Z,72.24
2018-10-09T11:57:24.490Z,72.34
2018-10-09T11:58:24.443Z,71.84
2018-10-09T11:59:24.432Z,71.53
2018-10-09T12:00:24.414Z,71.47
2018-10-09T12:01:24.429Z,71.87
2018-10-09T12:02:24.439Z,72.11
2018-10-09T12:03:24.382Z,73.02
2018-10-09T12:04:24.372Z,72.71
2018-10-09T12:05:24.360Z,73.32
2018-10-09T12:06:24.352Z,73.62
2018-10-09T12:07:24.349Z,72.98
2018-10-09T12:08:24.328Z,73.15
2018-10-09T12:09:24.323Z,72.34
2018-10-09T12:10:24.320Z,70.59
2018-10-09T12:11:24.300Z,70.19
2018-10-09T12:12:24.309Z,70.42
2018-10-09T12:13:24.280Z,70.69
2018-10-09T12:14:24.271Z,70.49
2018-10-09T12:15:24.253Z,70.49
2018-10-09T12:16:24.248Z,70.29
2018-10-09T12:17:24.235Z,70.09
2018-10-09T12:18:24.241Z,70.42
2018-10-09T12:19:24.215Z,70.73
2018-10-09T12:20:24.201Z,70.02
2018-10-09T12:21:24.208Z,70.09
2018-10-09T12:22:24.196Z,69.25
2018-10-09T12:23:24.194Z,68.85
2018-10-09T12:24:24.165Z,68.51
2018-10-09T12:25:24.151Z,67.27
2018-10-09T12:26:24.144Z,63.13
2018-10-09T12:27:24.126Z,59.72
2018-10-09T12:28:24.161Z,55.26
2018-10-09T12:29:24.110Z,50.90
2018-10-09T12:30:24.100Z,48.77
2018-10-09T12:31:24.084Z,49.38
2018-10-09T12:32:24.074Z,50.57
2018-10-09T12:33:24.088Z,49.43
2018-10-09T12:34:24.055Z,49.78
2018-10-09T12:35:24.042Z,50.80
2018-10-09T12:36:24.064Z,51.72
2018-10-09T12:37:24.020Z,52.39
2018-10-09T12:38:24.045Z,50.23
2018-10-09T12:39:24.002Z,48.99
2018-10-09T12:40:23.991Z,50.57
2018-10-09T12:41:24.030Z,52.25
2018-10-09T12:42:23.982Z,53.99
2018-10-09T12:43:23.957Z,54.11
2018-10-09T12:44:24.076Z,54.36
2018-10-09T12:45:23.934Z,53.94
2018-10-09T12:46:23.923Z,50.50
2018-10-09T12:47:23.925Z,50.48
2018-10-09T12:48:23.901Z,51.84
2018-10-09T12:49:23.907Z,53.59
2018-10-09T12:50:23.889Z,52.72
2018-10-09T12:51:23.878Z,51.79
2018-10-09T12:52:23.862Z,48.61